Terminal Aerodrome Forecast
Issued by NWS Huntsville, AL

Home | Current Version | Previous Version | Text Only | Print | Product List | Glossary On
Versions: 1 2 3 4 5 6 7 8 9 10 11 12 13
000
FTUS44 KHUN 211720
TAFHSV
TAF
KHSV 211720Z 2118/2218 01005KT P6SM VCTS SCT050CB BKN250
      TEMPO 2118/2122 4SM TSRA BR BKN050CB
     FM220000 VRB02KT P6SM SCT250
     FM220800 VRB02KT 4SM BR SKC
     FM221300 VRB03KT P6SM SKC=

USA.gov is the U.S. government's official web portal to all federal, state and local government web resources and services.